Time;durP1;ratioP1;P1;durP2;ratioP2;P2;SDS_P1;SDS_P2;PMS_P1;PMS_P2;Temp;Humidity;BMP_temperature;BMP_pressure;BME280_temperature;BME280_humidity;BME280_pressure;Samples;Min_cycle;Max_cycle;Signal;HPM_P1;HPM_P2
2023/09/08 00:01:11;;;;;;;18.50;17.50;;;20.10;1.00;;;;;;4963031;28;20488;-85
2023/09/08 00:03:39;;;;;;;18.93;17.80;;;20.00;1.00;;;;;;4962669;28;20503;-87
2023/09/08 00:06:09;;;;;;;18.70;17.70;;;20.00;1.00;;;;;;4960675;28;20559;-87
2023/09/08 00:08:37;;;;;;;19.57;18.47;;;20.00;1.00;;;;;;4965718;28;20905;-84
2023/09/08 00:11:07;;;;;;;19.67;18.60;;;19.90;1.00;;;;;;4954634;28;20465;-85
2023/09/08 00:13:35;;;;;;;19.07;18.20;;;19.90;1.00;;;;;;4962673;28;20460;-86
2023/09/08 00:16:04;;;;;;;18.77;17.53;;;19.90;1.00;;;;;;4962620;28;20473;-86
2023/09/08 00:18:32;;;;;;;18.30;17.30;;;19.80;1.00;;;;;;4963555;28;20526;-85
2023/09/08 00:21:01;;;;;;;18.27;17.33;;;19.80;1.00;;;;;;4963371;28;20460;-85
2023/09/08 00:23:30;;;;;;;18.13;17.03;;;19.80;1.00;;;;;;4960582;28;20471;-85
2023/09/08 00:25:59;;;;;;;18.33;17.50;;;19.80;1.00;;;;;;4958448;28;20494;-85
2023/09/08 00:28:27;;;;;;;18.17;17.37;;;19.80;1.00;;;;;;4960692;28;20460;-83
2023/09/08 00:30:55;;;;;;;17.87;17.00;;;19.70;1.00;;;;;;4961815;28;20468;-85
2023/09/08 00:33:24;;;;;;;17.80;17.00;;;19.60;1.00;;;;;;4964058;28;21489;-86
2023/09/08 00:35:53;;;;;;;18.97;18.00;;;19.70;1.00;;;;;;4961953;28;20526;-85
2023/09/08 00:38:21;;;;;;;18.10;17.10;;;19.60;1.00;;;;;;4953485;28;20543;-85
2023/09/08 00:40:51;;;;;;;18.30;17.50;;;19.60;1.00;;;;;;4956980;28;20465;-87
2023/09/08 00:43:19;;;;;;;18.13;17.23;;;19.50;1.00;;;;;;4963057;28;20455;-85
2023/09/08 00:45:47;;;;;;;18.23;17.43;;;19.50;1.00;;;;;;4956640;28;20547;-84
2023/09/08 00:48:16;;;;;;;17.50;16.70;;;19.60;1.00;;;;;;4962467;28;20463;-85
2023/09/08 00:50:48;;;;;;;18.20;17.30;;;19.50;1.00;;;;;;4958437;28;20456;-85
2023/09/08 00:53:16;;;;;;;18.70;17.80;;;19.50;1.00;;;;;;4961051;28;20476;-86
2023/09/08 00:55:45;;;;;;;18.40;17.50;;;19.50;1.00;;;;;;4959571;28;20515;-87
2023/09/08 00:58:15;;;;;;;18.87;17.97;;;19.50;1.00;;;;;;4958498;28;20452;-84
2023/09/08 01:00:44;;;;;;;18.70;17.83;;;19.40;1.00;;;;;;4960459;28;20466;-85
2023/09/08 01:03:13;;;;;;;19.60;18.63;;;19.40;1.00;;;;;;4960062;28;20981;-85
2023/09/08 01:05:41;;;;;;;18.17;17.27;;;19.40;1.00;;;;;;4960670;28;20502;-84
2023/09/08 01:08:10;;;;;;;18.63;17.83;;;19.40;1.00;;;;;;4964183;28;20488;-84
2023/09/08 01:10:41;;;;;;;18.23;17.33;;;19.40;1.00;;;;;;4958929;28;20850;-86
2023/09/08 01:13:09;;;;;;;18.20;17.40;;;19.40;1.00;;;;;;4961895;28;20460;-85
2023/09/08 01:15:38;;;;;;;19.55;18.42;;;19.30;1.00;;;;;;4960442;28;20483;-85
2023/09/08 01:18:07;;;;;;;17.50;16.70;;;19.30;1.00;;;;;;4960048;28;20294;-84
2023/09/08 01:20:49;;;;;;;17.67;16.87;;;19.40;1.00;;;;;;4972752;28;20464;-85
2023/09/08 01:23:22;;;;;;;17.47;16.67;;;19.30;1.00;;;;;;4958972;28;20455;-82
2023/09/08 01:25:56;;;;;;;17.83;17.03;;;19.20;1.00;;;;;;4960334;28;20592;-85
2023/09/08 01:28:25;;;;;;;18.23;17.43;;;19.20;1.00;;;;;;4961106;28;20453;-85
2023/09/08 01:30:55;;;;;;;18.33;17.33;;;19.20;1.00;;;;;;4963838;28;20452;-85
2023/09/08 01:33:23;;;;;;;18.47;17.60;;;19.20;1.00;;;;;;4960622;28;20819;-82
2023/09/08 01:35:52;;;;;;;18.30;17.40;;;19.20;1.00;;;;;;4957164;28;20631;-83
2023/09/08 01:38:22;;;;;;;18.27;17.37;;;19.20;1.00;;;;;;4962625;28;20453;-85
2023/09/08 01:40:52;;;;;;;17.60;16.70;;;19.20;1.00;;;;;;4968371;28;20466;-84
2023/09/08 01:43:20;;;;;;;19.30;18.30;;;19.20;1.00;;;;;;4963168;28;20470;-85
2023/09/08 01:45:48;;;;;;;18.23;17.53;;;19.20;1.00;;;;;;4961651;28;20493;-85
2023/09/08 01:48:17;;;;;;;18.60;17.50;;;19.20;1.00;;;;;;4963123;28;20510;-87
2023/09/08 01:50:46;;;;;;;18.53;17.63;;;19.20;1.00;;;;;;4961739;28;20523;-85
2023/09/08 01:53:14;;;;;;;18.37;17.57;;;19.10;1.00;;;;;;4958926;28;20466;-86
2023/09/08 01:55:42;;;;;;;18.40;17.50;;;19.10;1.00;;;;;;4965237;28;21267;-84
2023/09/08 01:58:12;;;;;;;19.23;18.23;;;19.10;1.00;;;;;;4961618;28;20531;-83
2023/09/08 02:00:40;;;;;;;19.53;18.43;;;19.00;1.00;;;;;;4959502;28;20499;-83
2023/09/08 02:03:08;;;;;;;19.20;18.20;;;19.00;1.00;;;;;;4963310;28;20472;-83
2023/09/08 02:05:38;;;;;;;20.30;19.00;;;18.90;1.00;;;;;;4956336;28;20483;-86
2023/09/08 02:08:07;;;;;;;18.87;17.87;;;18.80;1.00;;;;;;4959150;28;20457;-85
2023/09/08 02:10:35;;;;;;;19.27;18.27;;;18.90;1.20;;;;;;4957874;28;21287;-86
2023/09/08 02:13:03;;;;;;;19.70;18.73;;;18.90;1.00;;;;;;4961535;28;20542;-82
2023/09/08 02:15:36;;;;;;;20.40;19.27;;;18.90;1.00;;;;;;4954152;28;20492;-82
2023/09/08 02:18:05;;;;;;;19.27;18.27;;;18.90;21.40;;;;;;4971820;28;20459;-84
2023/09/08 02:20:33;;;;;;;18.77;17.70;;;18.90;27.00;;;;;;4960714;28;20538;-86
2023/09/08 02:23:06;;;;;;;18.57;17.57;;;18.80;1.00;;;;;;4954993;28;21084;-84
2023/09/08 02:25:34;;;;;;;18.13;17.30;;;18.80;18.50;;;;;;4958957;28;20571;-85
2023/09/08 02:28:02;;;;;;;18.50;17.63;;;18.80;1.00;;;;;;4963608;28;21235;-84
2023/09/08 02:30:31;;;;;;;19.30;18.40;;;18.80;2.60;;;;;;4954018;28;20491;-81
2023/09/08 02:33:02;;;;;;;18.80;17.80;;;18.70;54.50;;;;;;4955247;28;20552;-84
2023/09/08 02:35:31;;;;;;;18.33;17.37;;;18.70;60.10;;;;;;4954128;28;20471;-82
2023/09/08 02:37:59;;;;;;;17.93;17.03;;;18.70;85.70;;;;;;4959597;28;20488;-83
2023/09/08 02:40:27;;;;;;;17.80;16.97;;;18.60;63.50;;;;;;4960035;28;20474;-84
2023/09/08 02:42:55;;;;;;;19.90;18.90;;;18.60;71.90;;;;;;4954857;28;20455;-84
2023/09/08 02:45:23;;;;;;;18.67;17.87;;;18.60;36.20;;;;;;4956033;28;20563;-80
2023/09/08 02:47:51;;;;;;;19.83;18.57;;;18.70;53.70;;;;;;4956908;28;20476;-85
2023/09/08 02:50:21;;;;;;;19.20;18.20;;;18.70;25.20;;;;;;4958136;28;20552;-85
2023/09/08 02:52:50;;;;;;;18.20;17.30;;;18.60;25.90;;;;;;4956765;28;21012;-83
2023/09/08 02:55:19;;;;;;;18.73;17.73;;;18.60;30.00;;;;;;4956961;28;20481;-84
2023/09/08 02:57:47;;;;;;;19.10;18.00;;;18.60;29.80;;;;;;4958986;28;20456;-85
2023/09/08 03:00:15;;;;;;;19.15;18.05;;;18.50;49.10;;;;;;4955494;28;20465;-84
2023/09/08 03:02:43;;;;;;;18.70;17.80;;;18.60;23.90;;;;;;4954977;28;20345;-82
2023/09/08 03:05:12;;;;;;;17.47;16.73;;;18.60;24.70;;;;;;4952249;28;20480;-82
2023/09/08 03:07:42;;;;;;;18.10;17.20;;;18.50;1.70;;;;;;4958824;28;20492;-84
2023/09/08 03:10:11;;;;;;;18.60;17.60;;;18.40;29.90;;;;;;4955411;28;20969;-85
2023/09/08 03:12:39;;;;;;;18.63;17.83;;;18.40;59.90;;;;;;4957591;28;20460;-84
2023/09/08 03:15:08;;;;;;;18.70;17.80;;;18.40;47.60;;;;;;4960307;28;21014;-84
2023/09/08 03:17:36;;;;;;;19.23;18.43;;;18.40;75.20;;;;;;4967132;28;20451;-83
2023/09/08 03:20:08;;;;;;;19.80;18.80;;;18.40;33.10;;;;;;4958095;28;20535;-81
2023/09/08 03:22:36;;;;;;;18.80;18.00;;;18.30;6.90;;;;;;4959228;28;20469;-82
2023/09/08 03:25:07;;;;;;;19.67;18.77;;;18.30;35.00;;;;;;4957882;28;20453;-84
2023/09/08 03:27:35;;;;;;;20.03;18.73;;;18.30;37.00;;;;;;4960683;28;20484;-85
2023/09/08 03:30:05;;;;;;;19.40;18.50;;;18.20;42.40;;;;;;4958141;28;21221;-82
2023/09/08 03:32:33;;;;;;;18.73;17.83;;;18.20;67.60;;;;;;4961843;28;20457;-83
2023/09/08 03:35:01;;;;;;;18.47;17.63;;;18.20;41.80;;;;;;4959419;28;20492;-83
2023/09/08 03:37:29;;;;;;;18.57;17.47;;;18.20;29.60;;;;;;4958802;28;20484;-81
2023/09/08 03:39:57;;;;;;;18.23;17.40;;;18.20;35.40;;;;;;4954823;28;20453;-82
2023/09/08 03:42:27;;;;;;;18.00;17.03;;;18.10;8.90;;;;;;4957558;28;20468;-84
2023/09/08 03:44:55;;;;;;;18.47;17.67;;;18.10;23.40;;;;;;4956549;28;20546;-81
2023/09/08 03:47:23;;;;;;;19.13;18.03;;;18.10;89.90;;;;;;4956744;28;21009;-81
2023/09/08 03:49:51;;;;;;;18.03;17.30;;;18.10;97.00;;;;;;4955720;28;20455;-84
2023/09/08 03:52:20;;;;;;;18.53;17.73;;;18.10;92.40;;;;;;4960266;28;21045;-83
2023/09/08 03:54:48;;;;;;;18.63;17.83;;;18.10;54.30;;;;;;4951589;28;20456;-81
2023/09/08 03:57:16;;;;;;;17.70;16.80;;;18.10;27.70;;;;;;4960641;28;20487;-84
2023/09/08 03:59:46;;;;;;;17.80;17.00;;;18.10;22.00;;;;;;4957316;28;20488;-84
2023/09/08 04:02:14;;;;;;;18.20;17.20;;;18.10;31.20;;;;;;4954943;28;21121;-84
2023/09/08 04:04:42;;;;;;;17.47;16.77;;;18.10;59.80;;;;;;4957077;28;20515;-85
2023/09/08 04:07:10;;;;;;;18.73;17.80;;;18.10;99.90;;;;;;4961301;28;20575;-84
2023/09/08 04:09:38;;;;;;;18.80;17.80;;;18.10;99.90;;;;;;4955801;28;20455;-84
2023/09/08 04:12:09;;;;;;;18.57;17.37;;;18.00;99.90;;;;;;4962218;28;20524;-83
2023/09/08 04:14:37;;;;;;;18.90;17.80;;;18.00;99.90;;;;;;4944690;28;20464;-83
2023/09/08 04:17:07;;;;;;;18.10;17.27;;;18.10;98.30;;;;;;4956330;28;20576;-86
2023/09/08 04:19:35;;;;;;;18.67;17.80;;;18.10;80.30;;;;;;4961737;28;20462;-84
2023/09/08 04:22:04;;;;;;;20.40;19.30;;;18.00;99.90;;;;;;4960503;28;20455;-85
2023/09/08 04:24:37;;;;;;;18.80;17.97;;;18.00;99.90;;;;;;4952399;28;20512;-84
2023/09/08 04:27:05;;;;;;;18.90;18.10;;;18.00;99.90;;;;;;4962841;28;20519;-82
2023/09/08 04:29:33;;;;;;;19.63;18.53;;;18.00;98.40;;;;;;4958929;28;20987;-84
2023/09/08 04:32:08;;;;;;;19.10;18.20;;;18.00;81.00;;;;;;4963383;28;21077;-82
2023/09/08 04:34:39;;;;;;;19.10;18.20;;;17.90;99.90;;;;;;4952686;28;20471;-83
2023/09/08 04:37:08;;;;;;;18.47;17.57;;;17.90;99.90;;;;;;4959304;28;20539;-84
2023/09/08 04:39:37;;;;;;;18.67;17.70;;;17.90;99.90;;;;;;4945778;28;20473;-83
2023/09/08 04:42:06;;;;;;;19.30;18.30;;;17.90;99.90;;;;;;4961187;28;20463;-81
2023/09/08 04:44:34;;;;;;;19.77;18.60;;;17.90;99.90;;;;;;4955120;28;20491;-82
2023/09/08 04:47:02;;;;;;;20.20;19.10;;;17.90;99.90;;;;;;4966013;28;20483;-84
2023/09/08 04:49:30;;;;;;;19.77;18.60;;;17.90;99.90;;;;;;4961492;28;20459;-84
2023/09/08 04:52:00;;;;;;;19.90;18.90;;;17.90;86.50;;;;;;4963636;28;21251;-86
2023/09/08 04:54:28;;;;;;;19.90;18.90;;;17.80;99.90;;;;;;4958053;28;20539;-86
2023/09/08 04:56:56;;;;;;;19.90;18.90;;;17.80;99.90;;;;;;4959968;28;20483;-85
2023/09/08 04:59:45;;;;;;;18.50;17.70;;;17.70;99.90;;;;;;4954440;28;20471;-84
2023/09/08 05:02:13;;;;;;;19.13;18.20;;;17.70;99.90;;;;;;4960300;28;20464;-84
2023/09/08 05:04:41;;;;;;;19.03;18.13;;;17.70;99.90;;;;;;4962932;28;20957;-84
2023/09/08 05:07:13;;;;;;;19.87;18.97;;;17.80;99.90;;;;;;4956915;28;20498;-84
2023/09/08 05:09:41;;;;;;;19.40;18.40;;;17.80;99.90;;;;;;4953429;28;21051;-83
2023/09/08 05:12:10;;;;;;;18.73;17.77;;;17.80;99.90;;;;;;4958188;28;20463;-86
2023/09/08 05:14:38;;;;;;;18.73;17.93;;;17.80;99.90;;;;;;4960315;28;20470;-85
2023/09/08 05:17:06;;;;;;;18.20;17.10;;;17.80;99.90;;;;;;4965456;28;20522;-82
2023/09/08 05:19:34;;;;;;;19.30;18.40;;;17.80;99.90;;;;;;4965961;28;20472;-84
2023/09/08 05:22:02;;;;;;;19.10;18.20;;;17.80;99.90;;;;;;4970422;28;20458;-85
2023/09/08 05:24:32;;;;;;;19.30;18.30;;;17.80;99.90;;;;;;4959135;28;20471;-83
2023/09/08 05:27:00;;;;;;;19.67;18.63;;;17.80;99.90;;;;;;4961233;28;20991;-83
2023/09/08 05:29:28;;;;;;;19.17;18.27;;;17.80;99.90;;;;;;4959555;28;20495;-82
2023/09/08 05:31:56;;;;;;;20.27;19.17;;;17.80;99.90;;;;;;4967678;28;20459;-83
2023/09/08 05:34:25;;;;;;;19.00;18.20;;;17.90;99.90;;;;;;4961096;28;21118;-85
2023/09/08 05:36:53;;;;;;;20.63;19.33;;;17.80;99.90;;;;;;4965889;28;20483;-84
2023/09/08 05:39:21;;;;;;;19.70;18.70;;;17.80;99.90;;;;;;4961809;28;20460;-84
2023/09/08 05:41:51;;;;;;;19.63;18.63;;;17.80;99.90;;;;;;4954675;28;20457;-84
2023/09/08 05:44:19;;;;;;;19.70;18.60;;;17.80;99.90;;;;;;4956526;28;20478;-85
2023/09/08 05:46:47;;;;;;;19.70;18.67;;;17.90;99.90;;;;;;4956236;28;21021;-84
2023/09/08 05:49:17;;;;;;;20.03;18.93;;;17.90;99.90;;;;;;4959133;28;20476;-87
2023/09/08 05:51:46;;;;;;;19.83;18.63;;;18.00;99.90;;;;;;4961418;28;20555;-88
2023/09/08 05:54:14;;;;;;;19.70;18.70;;;18.00;99.90;;;;;;4961187;28;20462;-86
2023/09/08 05:56:42;;;;;;;19.60;18.60;;;18.10;99.90;;;;;;4970349;28;20514;-84
2023/09/08 05:59:20;;;;;;;20.30;19.30;;;18.10;99.90;;;;;;4961578;28;20551;-84
2023/09/08 06:01:56;;;;;;;19.97;19.07;;;18.20;99.90;;;;;;4965706;28;20483;-86
2023/09/08 06:04:38;;;;;;;20.47;19.37;;;18.30;99.90;;;;;;4962738;28;20452;-83
2023/09/08 06:07:06;;;;;;;21.30;20.17;;;18.40;99.90;;;;;;4965763;28;20492;-87
2023/09/08 06:09:38;;;;;;;19.83;18.70;;;18.50;99.90;;;;;;4967521;28;20470;-84
2023/09/08 06:12:10;;;;;;;21.23;20.00;;;18.80;99.90;;;;;;4964992;28;20440;-84
2023/09/08 06:14:49;;;;;;;20.20;19.23;;;19.10;99.90;;;;;;4962486;28;20504;-83
2023/09/08 06:17:18;;;;;;;21.60;20.40;;;19.40;1.00;;;;;;4960118;28;20484;-83
2023/09/08 06:20:12;;;;;;;20.50;19.33;;;19.40;1.00;;;;;;4963566;28;20468;-83
2023/09/08 06:22:40;;;;;;;21.47;20.30;;;19.50;1.00;;;;;;4966038;28;21065;-85
2023/09/08 06:25:09;;;;;;;21.97;20.13;;;19.40;1.00;;;;;;4965434;28;20460;-85
2023/09/08 06:27:38;;;;;;;21.07;19.87;;;19.40;92.00;;;;;;4963983;28;20460;-86
2023/09/08 06:30:09;;;;;;;23.23;21.53;;;19.40;99.90;;;;;;4964654;28;20539;-84
2023/09/08 06:32:39;;;;;;;21.80;20.57;;;19.40;99.90;;;;;;4965607;28;20554;-83
2023/09/08 06:35:09;;;;;;;21.70;20.50;;;19.40;99.90;;;;;;4960683;28;20494;-85
2023/09/08 06:37:42;;;;;;;20.70;19.60;;;19.50;99.90;;;;;;4966779;28;20890;-83
2023/09/08 06:40:15;;;;;;;21.42;20.17;;;19.60;99.90;;;;;;4985982;28;20537;-84
2023/09/08 06:42:44;;;;;;;20.37;19.40;;;19.60;99.90;;;;;;4965822;28;20217;-85
2023/09/08 06:45:22;;;;;;;21.13;20.03;;;19.70;94.60;;;;;;4967707;28;20466;-87
2023/09/08 06:48:00;;;;;;;23.33;22.13;;;19.70;61.30;;;;;;4958854;28;20464;-83
2023/09/08 06:51:00;;;;;;;22.47;20.97;;;19.80;94.70;;;;;;4966544;28;20460;-85
2023/09/08 06:53:32;;;;;;;21.90;20.80;;;19.80;99.90;;;;;;4962954;28;20468;-84
2023/09/08 06:56:00;;;;;;;22.33;20.93;;;19.90;99.90;;;;;;4960635;28;20861;-85
2023/09/08 06:58:30;;;;;;;22.80;21.50;;;19.90;99.90;;;;;;4949405;28;20463;-83
2023/09/08 07:01:00;;;;;;;21.58;20.42;;;19.90;99.90;;;;;;4953227;28;20451;-80
2023/09/08 07:03:28;;;;;;;21.73;20.53;;;20.00;16.10;;;;;;4952861;28;20196;-82
2023/09/08 07:06:03;;;;;;;21.60;20.50;;;20.10;45.80;;;;;;4959773;28;20924;-82
2023/09/08 07:08:46;;;;;;;22.00;20.87;;;20.10;53.40;;;;;;4955198;28;20487;-82
2023/09/08 07:11:23;;;;;;;22.30;21.00;;;20.20;90.30;;;;;;4947900;28;20551;-82
2023/09/08 07:13:58;;;;;;;22.37;21.27;;;20.20;62.40;;;;;;4950991;28;20463;-80
2023/09/08 07:17:35;;;;;;;22.00;20.80;;;20.30;99.90;;;;;;4954922;28;20559;-84
2023/09/08 07:20:20;;;;;;;21.40;20.30;;;20.40;99.90;;;;;;4948857;28;20870;-82
2023/09/08 07:22:48;;;;;;;22.60;21.40;;;20.60;97.20;;;;;;4949300;28;20465;-82
2023/09/08 07:25:17;;;;;;;22.43;21.23;;;20.70;62.10;;;;;;4952180;28;20487;-81
2023/09/08 07:27:45;;;;;;;22.63;21.53;;;20.80;62.40;;;;;;4960726;28;20534;-80
2023/09/08 07:30:14;;;;;;;21.90;20.77;;;20.80;17.90;;;;;;4957418;28;20580;-81
2023/09/08 07:32:44;;;;;;;22.50;21.20;;;20.90;19.20;;;;;;4970663;28;20449;-82
2023/09/08 07:35:14;;;;;;;22.80;21.50;;;20.90;97.50;;;;;;4959774;28;20465;-83
2023/09/08 07:37:42;;;;;;;23.73;22.47;;;20.90;61.00;;;;;;4956132;28;20464;-83
2023/09/08 07:40:12;;;;;;;22.43;21.30;;;20.90;54.30;;;;;;4953414;28;21410;-81
2023/09/08 07:42:40;;;;;;;22.50;21.23;;;20.90;99.90;;;;;;4949955;28;20466;-82
2023/09/08 07:45:10;;;;;;;21.63;20.47;;;20.90;99.90;;;;;;4957500;28;22383;-81
2023/09/08 07:47:39;;;;;;;22.33;21.23;;;21.10;63.20;;;;;;4958611;28;20455;-80
2023/09/08 07:50:25;;;;;;;23.40;22.10;;;21.20;69.90;;;;;;4959805;28;20479;-81
2023/09/08 07:52:55;;;;;;;21.87;20.80;;;21.30;35.80;;;;;;4954111;28;20464;-82
2023/09/08 07:55:27;;;;;;;23.57;22.13;;;21.40;1.00;;;;;;4957546;28;20530;-82
2023/09/08 07:57:57;;;;;;;22.40;21.20;;;21.50;1.00;;;;;;4956138;28;20527;-81
2023/09/08 08:00:26;;;;;;;23.63;22.23;;;21.70;1.00;;;;;;4951987;28;21042;-81
2023/09/08 08:02:56;;;;;;;23.67;22.27;;;21.80;1.00;;;;;;4955334;28;20479;-83
2023/09/08 08:05:26;;;;;;;23.20;22.00;;;22.00;1.00;;;;;;4954889;28;20947;-82
2023/09/08 08:07:54;;;;;;;21.30;20.30;;;22.00;1.00;;;;;;4957047;28;20467;-82
2023/09/08 08:10:22;;;;;;;23.20;21.77;;;22.10;1.00;;;;;;4961290;28;20558;-81
2023/09/08 08:12:50;;;;;;;23.10;22.00;;;22.20;1.00;;;;;;4957570;28;20487;-81
2023/09/08 08:15:20;;;;;;;21.57;20.47;;;22.30;1.00;;;;;;4949113;28;20579;-83
2023/09/08 08:17:48;;;;;;;21.30;20.30;;;22.40;1.00;;;;;;4949949;28;20465;-81
2023/09/08 08:20:17;;;;;;;21.77;20.77;;;22.40;1.00;;;;;;4950178;28;21019;-82
2023/09/08 08:22:48;;;;;;;22.83;21.70;;;22.50;1.00;;;;;;4954156;28;20451;-83
2023/09/08 08:25:16;;;;;;;21.43;20.30;;;22.50;1.00;;;;;;4970332;28;20463;-82
2023/09/08 08:27:44;;;;;;;22.83;21.53;;;22.60;1.00;;;;;;4959153;28;20468;-81
2023/09/08 08:30:13;;;;;;;21.70;20.47;;;22.70;1.00;;;;;;4952994;28;21161;-79
2023/09/08 08:32:41;;;;;;;20.90;19.90;;;22.80;1.00;;;;;;4947703;28;21056;-81
2023/09/08 08:35:11;;;;;;;21.10;20.10;;;22.90;1.00;;;;;;4946118;28;20458;-81
2023/09/08 08:37:41;;;;;;;22.03;20.83;;;23.00;1.00;;;;;;4947114;28;20460;-81
2023/09/08 08:40:13;;;;;;;21.87;20.77;;;23.00;1.00;;;;;;4948163;28;21055;-80
2023/09/08 08:42:44;;;;;;;21.00;20.00;;;23.10;1.00;;;;;;4938823;28;20474;-82
2023/09/08 08:45:12;;;;;;;22.30;21.17;;;23.10;1.00;;;;;;4950777;28;20466;-81
2023/09/08 08:47:42;;;;;;;21.70;20.70;;;23.20;1.00;;;;;;4953200;28;20984;-82
2023/09/08 08:50:14;;;;;;;22.13;21.03;;;23.30;1.00;;;;;;4953602;28;20483;-81
2023/09/08 08:52:42;;;;;;;21.80;20.67;;;23.40;1.00;;;;;;4954481;28;20490;-82
2023/09/08 08:55:14;;;;;;;22.17;21.07;;;23.50;1.00;;;;;;4953982;28;20537;-82
2023/09/08 08:57:44;;;;;;;22.37;21.27;;;23.50;1.00;;;;;;4959088;28;20474;-82
2023/09/08 09:00:15;;;;;;;21.40;20.40;;;23.50;1.00;;;;;;4973298;28;20882;-80
2023/09/08 09:02:44;;;;;;;21.73;20.73;;;23.50;1.00;;;;;;4942060;28;20460;-81
2023/09/08 09:05:23;;;;;;;22.60;21.50;;;23.60;1.00;;;;;;4952927;28;21004;-84
2023/09/08 09:07:52;;;;;;;22.37;21.17;;;23.70;1.00;;;;;;4950343;28;20554;-83
2023/09/08 09:10:22;;;;;;;22.50;21.40;;;23.70;1.00;;;;;;4949757;28;20511;-82
2023/09/08 09:12:50;;;;;;;21.80;20.83;;;23.70;1.00;;;;;;4955343;28;21054;-83
2023/09/08 09:15:29;;;;;;;22.00;21.00;;;23.80;1.00;;;;;;4957501;28;20487;-83
2023/09/08 09:18:05;;;;;;;21.40;20.40;;;23.70;1.00;;;;;;4957407;28;20547;-83
2023/09/08 09:20:34;;;;;;;21.90;20.90;;;23.70;1.00;;;;;;4944778;28;20547;-82
2023/09/08 09:23:03;;;;;;;23.07;21.97;;;23.70;1.00;;;;;;4951543;28;20459;-83
2023/09/08 09:25:33;;;;;;;21.80;20.90;;;23.70;1.00;;;;;;4955413;28;20479;-84
2023/09/08 09:28:03;;;;;;;22.20;20.97;;;23.80;1.00;;;;;;4948327;28;20452;-82
2023/09/08 09:30:48;;;;;;;23.00;21.90;;;23.80;1.00;;;;;;4956305;28;20499;-83
2023/09/08 09:33:17;;;;;;;21.77;20.77;;;23.90;1.00;;;;;;4957973;28;20459;-82
2023/09/08 09:35:46;;;;;;;21.33;20.30;;;24.00;1.00;;;;;;4960063;28;21015;-84
2023/09/08 09:38:15;;;;;;;21.37;20.47;;;24.00;99.90;;;;;;4954234;28;21013;-83
2023/09/08 09:40:45;;;;;;;20.30;19.60;;;24.00;99.90;;;;;;4956847;28;20466;-82
2023/09/08 09:43:14;;;;;;;21.90;20.90;;;24.00;99.90;;;;;;4949975;28;20474;-83
2023/09/08 09:45:43;;;;;;;21.83;20.60;;;24.00;99.90;;;;;;4948768;28;20909;-81
2023/09/08 09:48:12;;;;;;;21.30;20.40;;;24.10;99.90;;;;;;4957278;28;20464;-81
2023/09/08 09:50:42;;;;;;;21.60;20.50;;;24.10;99.90;;;;;;4956716;28;21406;-82
2023/09/08 09:53:13;;;;;;;21.57;20.57;;;24.20;99.90;;;;;;4957964;28;20474;-83
2023/09/08 09:55:43;;;;;;;22.47;21.30;;;24.20;99.90;;;;;;4954341;28;20558;-84
2023/09/08 09:58:14;;;;;;;21.33;20.43;;;24.20;99.90;;;;;;4943575;28;20480;-83
2023/09/08 10:00:47;;;;;;;21.50;20.40;;;24.20;99.90;;;;;;4950851;28;20459;-83
2023/09/08 10:03:16;;;;;;;22.70;21.47;;;24.30;99.90;;;;;;4959150;28;20546;-83
2023/09/08 10:05:47;;;;;;;22.27;21.03;;;24.30;99.90;;;;;;4960412;28;20475;-82
2023/09/08 10:08:15;;;;;;;21.30;20.20;;;24.50;99.90;;;;;;4957705;28;20467;-80
2023/09/08 10:10:47;;;;;;;21.47;20.23;;;24.40;99.90;;;;;;4957584;28;20539;-81
2023/09/08 10:13:24;;;;;;;21.83;20.83;;;24.50;99.90;;;;;;4948621;28;21165;-84
2023/09/08 10:15:55;;;;;;;21.10;20.10;;;24.50;99.90;;;;;;4947841;28;20474;-82
2023/09/08 10:18:24;;;;;;;22.80;21.40;;;24.40;99.90;;;;;;4947576;28;20480;-83
2023/09/08 10:20:56;;;;;;;20.30;19.43;;;24.50;99.90;;;;;;4953242;28;20449;-80
2023/09/08 10:23:32;;;;;;;22.63;21.43;;;24.60;99.90;;;;;;4941040;28;20482;-82
2023/09/08 10:26:06;;;;;;;21.87;20.90;;;24.60;99.90;;;;;;4949868;28;21155;-82
2023/09/08 10:28:37;;;;;;;21.40;20.50;;;24.60;99.90;;;;;;4957138;28;20442;-81
2023/09/08 10:31:06;;;;;;;21.17;20.07;;;24.70;99.90;;;;;;4949008;28;20489;-83
2023/09/08 10:33:36;;;;;;;20.97;19.97;;;24.60;99.90;;;;;;4952977;28;20561;-80
2023/09/08 10:36:07;;;;;;;21.40;20.40;;;24.70;99.90;;;;;;4949358;28;20618;-81
2023/09/08 10:38:35;;;;;;;22.10;21.00;;;24.80;99.90;;;;;;4952658;28;20455;-81
2023/09/08 10:41:27;;;;;;;22.23;21.07;;;24.70;99.90;;;;;;4955531;28;20444;-83
2023/09/08 10:44:04;;;;;;;22.23;21.23;;;24.70;99.90;;;;;;4950153;28;20456;-80
2023/09/08 10:46:34;;;;;;;21.50;20.50;;;24.70;99.90;;;;;;4952608;28;20476;-81
2023/09/08 10:49:06;;;;;;;20.73;19.83;;;24.70;99.90;;;;;;4956621;28;20453;-83
2023/09/08 10:51:35;;;;;;;22.17;21.17;;;24.70;99.90;;;;;;4947132;28;21122;-85
2023/09/08 10:54:11;;;;;;;21.77;20.53;;;24.80;99.90;;;;;;4940574;28;20476;-84
2023/09/08 10:57:21;;;;;;;21.63;20.50;;;24.80;99.90;;;;;;4951067;28;20500;-83
2023/09/08 10:59:56;;;;;;;21.07;20.00;;;24.90;99.90;;;;;;4955949;28;20468;-82
2023/09/08 11:03:07;;;;;;;20.20;19.30;;;24.90;99.90;;;;;;4951184;28;20448;-83
2023/09/08 11:05:39;;;;;;;19.70;18.90;;;25.00;99.90;;;;;;4938457;28;20486;-82
2023/09/08 11:09:02;;;;;;;21.00;20.00;;;25.10;99.90;;;;;;4958081;28;20450;-83
2023/09/08 11:16:48;;;;;;;20.13;19.30;;;25.10;99.90;;;;;;4831248;29;20498;-82
2023/09/08 11:19:16;;;;;;;19.97;19.17;;;25.10;99.90;;;;;;4880675;29;20474;-84
2023/09/08 11:21:49;;;;;;;20.23;19.30;;;25.10;99.90;;;;;;4892547;29;21157;-81
2023/09/08 11:24:31;;;;;;;19.60;18.90;;;25.10;99.90;;;;;;4896309;29;20458;-82
2023/09/08 11:27:12;;;;;;;20.50;19.60;;;25.20;99.90;;;;;;4949427;28;20488;-81
2023/09/08 11:29:41;;;;;;;19.50;18.60;;;25.20;99.90;;;;;;4955254;28;20459;-83
2023/09/08 11:32:11;;;;;;;19.50;18.70;;;25.20;99.90;;;;;;4953514;28;20574;-83
2023/09/08 11:35:20;;;;;;;20.40;19.47;;;25.20;99.90;;;;;;4959836;28;20468;-83
2023/09/08 11:38:14;;;;;;;20.73;19.83;;;25.20;99.90;;;;;;4943191;28;20467;-84
2023/09/08 11:41:00;;;;;;;19.70;18.90;;;25.40;99.90;;;;;;4954311;28;20987;-83
2023/09/08 11:44:10;;;;;;;18.43;17.73;;;25.40;99.90;;;;;;4959120;28;20466;-81
2023/09/08 11:46:39;;;;;;;18.77;18.00;;;25.50;99.90;;;;;;4952719;28;20646;-81
2023/09/08 11:49:46;;;;;;;18.90;18.20;;;25.40;99.90;;;;;;4953442;28;20966;-83
2023/09/08 11:56:28;;;;;;;18.97;18.07;;;25.50;99.90;;;;;;4962064;23;20496;-81
2023/09/08 11:58:58;;;;;;;17.00;16.27;;;25.60;99.90;;;;;;4943050;28;20469;-82
2023/09/08 12:01:53;;;;;;;18.00;17.20;;;25.60;99.90;;;;;;4943782;28;20559;-82
2023/09/08 12:04:21;;;;;;;18.90;18.10;;;25.60;99.90;;;;;;4937493;28;20459;-82
2023/09/08 12:07:04;;;;;;;18.50;17.70;;;25.60;99.90;;;;;;4933772;28;20496;-82
2023/09/08 12:12:54;;;;;;;18.97;18.07;;;25.70;99.90;;;;;;4927426;28;20508;-83
2023/09/08 12:15:33;;;;;;;18.80;18.00;;;25.80;99.90;;;;;;4936247;28;20476;-82
2023/09/08 12:18:03;;;;;;;23.37;21.77;;;25.80;99.90;;;;;;4932994;28;20468;-82
2023/09/08 12:20:31;;;;;;;21.07;19.70;;;25.80;99.90;;;;;;4934511;28;20471;-79
2023/09/08 12:23:30;;;;;;;18.27;17.37;;;25.90;99.90;;;;;;4933994;28;20504;-84
2023/09/08 12:25:58;;;;;;;20.53;19.43;;;25.90;99.90;;;;;;5150628;23;21039;-82
2023/09/08 12:29:28;;;;;;;20.60;19.20;;;25.90;99.90;;;;;;4965940;28;20836;-82
2023/09/08 12:32:21;;;;;;;19.20;18.33;;;25.80;99.90;;;;;;4966207;28;20487;-83
2023/09/08 12:41:42;;;;;;;19.33;18.50;;;25.90;99.90;;;;;;4982759;28;20474;-83
2023/09/08 12:44:17;;;;;;;19.13;18.10;;;25.90;99.90;;;;;;4980795;28;20470;-80
2023/09/08 12:47:11;;;;;;;19.53;18.53;;;26.00;99.90;;;;;;5175634;23;20511;-81
2023/09/08 12:49:40;;;;;;;20.43;19.27;;;26.00;99.90;;;;;;4942452;28;20460;-82
2023/09/08 12:52:09;;;;;;;19.90;18.90;;;26.00;99.90;;;;;;4943751;28;20473;-83
2023/09/08 12:55:02;;;;;;;19.60;18.57;;;25.90;99.90;;;;;;4938727;28;20460;-85
2023/09/08 12:57:49;;;;;;;21.30;20.20;;;26.00;99.90;;;;;;4924437;29;20451;-83
2023/09/08 13:00:43;;;;;;;21.07;20.10;;;26.00;99.90;;;;;;4922695;29;20986;-82
2023/09/08 13:03:48;;;;;;;19.57;18.67;;;26.00;99.90;;;;;;4924067;29;20995;-83
2023/09/08 13:06:27;;;;;;;17.90;17.10;;;26.00;99.90;;;;;;4936692;28;20477;-80
2023/09/08 13:08:55;;;;;;;19.40;18.40;;;26.00;99.90;;;;;;4922656;29;21248;-83
2023/09/08 13:11:35;;;;;;;19.27;18.47;;;26.00;99.90;;;;;;4921901;29;20454;-83
2023/09/08 13:14:40;;;;;;;20.00;19.07;;;26.10;99.90;;;;;;4919397;29;20521;-83
2023/09/08 13:32:16;;;;;;;17.70;16.90;;;26.10;99.90;;;;;;4912946;29;20521;-85